sensor_id;sensor_type;location;lat;lon;timestamp;P1;durP1;ratioP1;P2;durP2;ratioP2
18853;SDS011;9556;49.374;19.446;2023-04-06T00:01:43;17.15;;;10.88;;
18853;SDS011;9556;49.374;19.446;2023-04-06T00:04:11;16.83;;;10.38;;
18853;SDS011;9556;49.374;19.446;2023-04-06T00:06:39;17.70;;;10.95;;
18853;SDS011;9556;49.374;19.446;2023-04-06T00:09:06;19.65;;;11.40;;
18853;SDS011;9556;49.374;19.446;2023-04-06T00:11:33;17.77;;;10.65;;
18853;SDS011;9556;49.374;19.446;2023-04-06T00:14:00;13.55;;;9.10;;
18853;SDS011;9556;49.374;19.446;2023-04-06T00:16:29;13.90;;;8.40;;
18853;SDS011;9556;49.374;19.446;2023-04-06T00:18:56;14.20;;;8.73;;
18853;SDS011;9556;49.374;19.446;2023-04-06T00:21:23;14.57;;;8.75;;
18853;SDS011;9556;49.374;19.446;2023-04-06T00:23:51;14.70;;;8.95;;
18853;SDS011;9556;49.374;19.446;2023-04-06T00:26:18;14.88;;;9.32;;
18853;SDS011;9556;49.374;19.446;2023-04-06T00:28:46;14.75;;;8.75;;
18853;SDS011;9556;49.374;19.446;2023-04-06T00:31:15;14.23;;;9.07;;
18853;SDS011;9556;49.374;19.446;2023-04-06T00:33:43;13.50;;;8.50;;
18853;SDS011;9556;49.374;19.446;2023-04-06T00:36:11;14.52;;;8.48;;
18853;SDS011;9556;49.374;19.446;2023-04-06T00:38:38;17.42;;;8.85;;
18853;SDS011;9556;49.374;19.446;2023-04-06T00:41:05;12.77;;;8.68;;
18853;SDS011;9556;49.374;19.446;2023-04-06T00:43:32;15.18;;;8.80;;
18853;SDS011;9556;49.374;19.446;2023-04-06T00:46:00;14.70;;;8.93;;
18853;SDS011;9556;49.374;19.446;2023-04-06T00:48:27;14.48;;;8.52;;
18853;SDS011;9556;49.374;19.446;2023-04-06T00:50:57;13.45;;;8.35;;
18853;SDS011;9556;49.374;19.446;2023-04-06T00:53:24;13.93;;;9.00;;
18853;SDS011;9556;49.374;19.446;2023-04-06T00:55:51;12.88;;;8.43;;
18853;SDS011;9556;49.374;19.446;2023-04-06T00:58:19;17.00;;;10.48;;
18853;SDS011;9556;49.374;19.446;2023-04-06T01:00:46;18.17;;;10.65;;
18853;SDS011;9556;49.374;19.446;2023-04-06T01:03:13;16.50;;;9.90;;
18853;SDS011;9556;49.374;19.446;2023-04-06T01:05:41;17.55;;;10.52;;
18853;SDS011;9556;49.374;19.446;2023-04-06T01:08:10;17.73;;;11.20;;
18853;SDS011;9556;49.374;19.446;2023-04-06T01:10:37;18.23;;;10.32;;
18853;SDS011;9556;49.374;19.446;2023-04-06T01:13:05;15.68;;;8.52;;
18853;SDS011;9556;49.374;19.446;2023-04-06T01:15:33;15.93;;;9.23;;
18853;SDS011;9556;49.374;19.446;2023-04-06T01:18:03;14.02;;;9.05;;
18853;SDS011;9556;49.374;19.446;2023-04-06T01:20:31;12.52;;;8.15;;
18853;SDS011;9556;49.374;19.446;2023-04-06T01:23:00;15.23;;;9.10;;
18853;SDS011;9556;49.374;19.446;2023-04-06T01:25:27;13.90;;;8.45;;
18853;SDS011;9556;49.374;19.446;2023-04-06T01:27:55;15.23;;;9.02;;
18853;SDS011;9556;49.374;19.446;2023-04-06T01:30:22;14.57;;;8.73;;
18853;SDS011;9556;49.374;19.446;2023-04-06T01:32:49;14.70;;;8.57;;
18853;SDS011;9556;49.374;19.446;2023-04-06T01:35:17;16.52;;;8.27;;
18853;SDS011;9556;49.374;19.446;2023-04-06T01:37:44;13.57;;;8.35;;
18853;SDS011;9556;49.374;19.446;2023-04-06T01:40:13;14.32;;;8.40;;
18853;SDS011;9556;49.374;19.446;2023-04-06T01:42:41;12.88;;;8.00;;
18853;SDS011;9556;49.374;19.446;2023-04-06T01:45:08;14.85;;;8.00;;
18853;SDS011;9556;49.374;19.446;2023-04-06T01:47:36;13.63;;;7.63;;
18853;SDS011;9556;49.374;19.446;2023-04-06T01:50:03;10.90;;;7.32;;
18853;SDS011;9556;49.374;19.446;2023-04-06T01:52:32;13.45;;;8.00;;
18853;SDS011;9556;49.374;19.446;2023-04-06T01:54:59;12.13;;;7.65;;
18853;SDS011;9556;49.374;19.446;2023-04-06T01:57:28;12.32;;;7.40;;
18853;SDS011;9556;49.374;19.446;2023-04-06T01:59:55;12.43;;;7.93;;
18853;SDS011;9556;49.374;19.446;2023-04-06T02:02:22;12.05;;;7.57;;
18853;SDS011;9556;49.374;19.446;2023-04-06T02:04:49;13.82;;;7.80;;
18853;SDS011;9556;49.374;19.446;2023-04-06T02:07:17;15.55;;;8.20;;
18853;SDS011;9556;49.374;19.446;2023-04-06T02:09:44;13.13;;;7.93;;
18853;SDS011;9556;49.374;19.446;2023-04-06T02:12:11;11.57;;;7.63;;
18853;SDS011;9556;49.374;19.446;2023-04-06T02:14:40;14.35;;;7.82;;
18853;SDS011;9556;49.374;19.446;2023-04-06T02:17:07;12.10;;;7.30;;
18853;SDS011;9556;49.374;19.446;2023-04-06T02:19:34;12.82;;;7.10;;
18853;SDS011;9556;49.374;19.446;2023-04-06T02:22:01;11.93;;;7.28;;
18853;SDS011;9556;49.374;19.446;2023-04-06T02:24:29;12.45;;;7.55;;
18853;SDS011;9556;49.374;19.446;2023-04-06T02:26:56;14.32;;;7.65;;
18853;SDS011;9556;49.374;19.446;2023-04-06T02:29:23;12.87;;;7.40;;
18853;SDS011;9556;49.374;19.446;2023-04-06T02:31:52;11.40;;;7.30;;
18853;SDS011;9556;49.374;19.446;2023-04-06T02:34:19;12.93;;;7.07;;
18853;SDS011;9556;49.374;19.446;2023-04-06T02:36:46;13.45;;;7.47;;
18853;SDS011;9556;49.374;19.446;2023-04-06T02:39:14;13.05;;;7.25;;
18853;SDS011;9556;49.374;19.446;2023-04-06T02:41:41;11.55;;;7.18;;
18853;SDS011;9556;49.374;19.446;2023-04-06T02:44:08;11.13;;;6.63;;
18853;SDS011;9556;49.374;19.446;2023-04-06T02:46:35;13.00;;;7.20;;
18853;SDS011;9556;49.374;19.446;2023-04-06T02:49:04;11.97;;;7.33;;
18853;SDS011;9556;49.374;19.446;2023-04-06T02:51:31;13.40;;;7.75;;
18853;SDS011;9556;49.374;19.446;2023-04-06T02:53:59;14.17;;;7.60;;
18853;SDS011;9556;49.374;19.446;2023-04-06T02:56:26;12.27;;;7.50;;
18853;SDS011;9556;49.374;19.446;2023-04-06T02:58:53;18.57;;;11.50;;
18853;SDS011;9556;49.374;19.446;2023-04-06T03:01:20;29.02;;;17.60;;
18853;SDS011;9556;49.374;19.446;2023-04-06T03:03:47;30.07;;;17.73;;
18853;SDS011;9556;49.374;19.446;2023-04-06T03:06:16;21.37;;;13.37;;
18853;SDS011;9556;49.374;19.446;2023-04-06T03:08:43;18.23;;;11.57;;
18853;SDS011;9556;49.374;19.446;2023-04-06T03:11:10;22.98;;;14.75;;
18853;SDS011;9556;49.374;19.446;2023-04-06T03:13:38;18.38;;;11.07;;
18853;SDS011;9556;49.374;19.446;2023-04-06T03:16:05;16.10;;;10.50;;
18853;SDS011;9556;49.374;19.446;2023-04-06T03:18:32;15.82;;;10.07;;
18853;SDS011;9556;49.374;19.446;2023-04-06T03:21:00;15.70;;;9.80;;
18853;SDS011;9556;49.374;19.446;2023-04-06T03:23:28;17.55;;;10.13;;
18853;SDS011;9556;49.374;19.446;2023-04-06T03:25:55;14.10;;;9.50;;
18853;SDS011;9556;49.374;19.446;2023-04-06T03:28:23;14.95;;;9.52;;
18853;SDS011;9556;49.374;19.446;2023-04-06T03:30:50;16.83;;;9.67;;
18853;SDS011;9556;49.374;19.446;2023-04-06T03:33:17;15.10;;;9.07;;
18853;SDS011;9556;49.374;19.446;2023-04-06T03:35:44;14.40;;;8.97;;
18853;SDS011;9556;49.374;19.446;2023-04-06T03:38:12;13.63;;;8.40;;
18853;SDS011;9556;49.374;19.446;2023-04-06T03:40:41;14.13;;;8.63;;
18853;SDS011;9556;49.374;19.446;2023-04-06T03:43:09;13.60;;;8.50;;
18853;SDS011;9556;49.374;19.446;2023-04-06T03:45:36;13.57;;;8.32;;
18853;SDS011;9556;49.374;19.446;2023-04-06T03:48:04;13.10;;;8.67;;
18853;SDS011;9556;49.374;19.446;2023-04-06T03:50:31;12.27;;;7.53;;
18853;SDS011;9556;49.374;19.446;2023-04-06T03:52:59;12.23;;;8.07;;
18853;SDS011;9556;49.374;19.446;2023-04-06T03:55:28;12.97;;;8.03;;
18853;SDS011;9556;49.374;19.446;2023-04-06T03:57:56;13.50;;;8.07;;
18853;SDS011;9556;49.374;19.446;2023-04-06T04:00:24;11.57;;;7.97;;
18853;SDS011;9556;49.374;19.446;2023-04-06T04:02:51;13.97;;;8.43;;
18853;SDS011;9556;49.374;19.446;2023-04-06T04:05:18;14.63;;;8.80;;
18853;SDS011;9556;49.374;19.446;2023-04-06T04:07:50;12.57;;;8.23;;
18853;SDS011;9556;49.374;19.446;2023-04-06T04:10:17;14.03;;;8.57;;
18853;SDS011;9556;49.374;19.446;2023-04-06T04:12:44;12.97;;;7.93;;
18853;SDS011;9556;49.374;19.446;2023-04-06T04:15:13;12.73;;;8.00;;
18853;SDS011;9556;49.374;19.446;2023-04-06T04:17:40;12.20;;;7.78;;
18853;SDS011;9556;49.374;19.446;2023-04-06T04:20:11;12.83;;;7.83;;
18853;SDS011;9556;49.374;19.446;2023-04-06T04:22:39;12.80;;;7.40;;
18853;SDS011;9556;49.374;19.446;2023-04-06T04:25:06;10.63;;;6.97;;
18853;SDS011;9556;49.374;19.446;2023-04-06T04:27:33;13.13;;;7.43;;
18853;SDS011;9556;49.374;19.446;2023-04-06T04:30:00;12.43;;;7.70;;
18853;SDS011;9556;49.374;19.446;2023-04-06T04:32:29;12.37;;;7.10;;
18853;SDS011;9556;49.374;19.446;2023-04-06T04:34:56;11.63;;;7.55;;
18853;SDS011;9556;49.374;19.446;2023-04-06T04:37:23;12.82;;;7.10;;
18853;SDS011;9556;49.374;19.446;2023-04-06T04:39:51;11.57;;;7.07;;
18853;SDS011;9556;49.374;19.446;2023-04-06T04:42:18;12.73;;;7.40;;
18853;SDS011;9556;49.374;19.446;2023-04-06T04:44:45;12.07;;;7.40;;
18853;SDS011;9556;49.374;19.446;2023-04-06T04:47:12;12.17;;;7.70;;
18853;SDS011;9556;49.374;19.446;2023-04-06T04:49:41;12.03;;;7.63;;
18853;SDS011;9556;49.374;19.446;2023-04-06T04:52:08;11.00;;;6.88;;
18853;SDS011;9556;49.374;19.446;2023-04-06T04:54:35;13.63;;;7.13;;
18853;SDS011;9556;49.374;19.446;2023-04-06T04:57:03;12.90;;;7.07;;
18853;SDS011;9556;49.374;19.446;2023-04-06T04:59:30;11.27;;;6.80;;
18853;SDS011;9556;49.374;19.446;2023-04-06T05:01:59;15.95;;;6.82;;
18853;SDS011;9556;49.374;19.446;2023-04-06T05:04:27;11.25;;;6.97;;
18853;SDS011;9556;49.374;19.446;2023-04-06T05:07:03;10.05;;;6.60;;
18853;SDS011;9556;49.374;19.446;2023-04-06T05:09:30;10.20;;;6.38;;
18853;SDS011;9556;49.374;19.446;2023-04-06T05:11:57;10.65;;;6.38;;
18853;SDS011;9556;49.374;19.446;2023-04-06T05:14:25;10.95;;;6.80;;
18853;SDS011;9556;49.374;19.446;2023-04-06T05:16:52;11.53;;;6.67;;
18853;SDS011;9556;49.374;19.446;2023-04-06T05:19:20;11.75;;;6.38;;
18853;SDS011;9556;49.374;19.446;2023-04-06T05:21:47;10.90;;;6.82;;
18853;SDS011;9556;49.374;19.446;2023-04-06T05:24:16;13.47;;;6.60;;
18853;SDS011;9556;49.374;19.446;2023-04-06T05:26:43;10.02;;;6.18;;
18853;SDS011;9556;49.374;19.446;2023-04-06T05:29:11;9.77;;;6.37;;
18853;SDS011;9556;49.374;19.446;2023-04-06T05:31:38;11.77;;;6.80;;
18853;SDS011;9556;49.374;19.446;2023-04-06T05:34:05;10.18;;;6.03;;
18853;SDS011;9556;49.374;19.446;2023-04-06T05:36:34;9.43;;;6.17;;
18853;SDS011;9556;49.374;19.446;2023-04-06T05:39:01;14.47;;;6.00;;
18853;SDS011;9556;49.374;19.446;2023-04-06T05:41:30;10.57;;;5.93;;
18853;SDS011;9556;49.374;19.446;2023-04-06T05:43:57;10.33;;;5.90;;
18853;SDS011;9556;49.374;19.446;2023-04-06T05:46:24;11.20;;;6.40;;
18853;SDS011;9556;49.374;19.446;2023-04-06T05:49:06;12.40;;;6.37;;
18853;SDS011;9556;49.374;19.446;2023-04-06T05:51:33;10.33;;;6.17;;
18853;SDS011;9556;49.374;19.446;2023-04-06T05:54:00;14.20;;;6.07;;
18853;SDS011;9556;49.374;19.446;2023-04-06T05:56:27;11.60;;;5.97;;
18853;SDS011;9556;49.374;19.446;2023-04-06T05:58:56;12.60;;;5.90;;
18853;SDS011;9556;49.374;19.446;2023-04-06T06:01:23;14.03;;;6.10;;
18853;SDS011;9556;49.374;19.446;2023-04-06T06:03:51;19.83;;;7.53;;
18853;SDS011;9556;49.374;19.446;2023-04-06T06:06:18;18.27;;;6.93;;
18853;SDS011;9556;49.374;19.446;2023-04-06T06:08:45;14.97;;;7.37;;
18853;SDS011;9556;49.374;19.446;2023-04-06T06:11:13;14.57;;;6.60;;
18853;SDS011;9556;49.374;19.446;2023-04-06T06:13:40;15.77;;;6.63;;
18853;SDS011;9556;49.374;19.446;2023-04-06T06:16:09;10.63;;;6.03;;
18853;SDS011;9556;49.374;19.446;2023-04-06T06:18:36;11.97;;;6.23;;
18853;SDS011;9556;49.374;19.446;2023-04-06T06:21:03;14.97;;;5.93;;
18853;SDS011;9556;49.374;19.446;2023-04-06T06:23:30;34.67;;;7.53;;
18853;SDS011;9556;49.374;19.446;2023-04-06T06:26:00;17.40;;;6.67;;
18853;SDS011;9556;49.374;19.446;2023-04-06T06:28:28;16.10;;;6.30;;
18853;SDS011;9556;49.374;19.446;2023-04-06T06:30:55;15.47;;;5.97;;
18853;SDS011;9556;49.374;19.446;2023-04-06T06:33:24;16.48;;;6.00;;
18853;SDS011;9556;49.374;19.446;2023-04-06T06:35:52;11.27;;;5.63;;
18853;SDS011;9556;49.374;19.446;2023-04-06T06:38:19;11.57;;;5.47;;
18853;SDS011;9556;49.374;19.446;2023-04-06T06:40:46;11.63;;;5.57;;
18853;SDS011;9556;49.374;19.446;2023-04-06T06:43:14;11.80;;;5.20;;
18853;SDS011;9556;49.374;19.446;2023-04-06T06:45:41;13.60;;;5.78;;
18853;SDS011;9556;49.374;19.446;2023-04-06T06:48:08;21.38;;;5.60;;
18853;SDS011;9556;49.374;19.446;2023-04-06T06:50:37;11.17;;;4.87;;
18853;SDS011;9556;49.374;19.446;2023-04-06T06:53:04;16.80;;;5.27;;
18853;SDS011;9556;49.374;19.446;2023-04-06T06:55:31;9.67;;;5.20;;
18853;SDS011;9556;49.374;19.446;2023-04-06T06:57:59;8.82;;;5.18;;
18853;SDS011;9556;49.374;19.446;2023-04-06T07:00:26;13.33;;;5.33;;
18853;SDS011;9556;49.374;19.446;2023-04-06T07:02:53;8.57;;;5.00;;
18853;SDS011;9556;49.374;19.446;2023-04-06T07:05:20;10.13;;;4.80;;
18853;SDS011;9556;49.374;19.446;2023-04-06T07:07:49;10.00;;;5.50;;
18853;SDS011;9556;49.374;19.446;2023-04-06T07:10:16;13.70;;;5.73;;
18853;SDS011;9556;49.374;19.446;2023-04-06T07:12:44;11.23;;;5.53;;
18853;SDS011;9556;49.374;19.446;2023-04-06T07:15:11;13.23;;;4.87;;
18853;SDS011;9556;49.374;19.446;2023-04-06T07:17:38;15.33;;;6.00;;
18853;SDS011;9556;49.374;19.446;2023-04-06T07:20:06;10.60;;;5.50;;
18853;SDS011;9556;49.374;19.446;2023-04-06T07:22:34;13.63;;;6.17;;
18853;SDS011;9556;49.374;19.446;2023-04-06T07:25:02;12.00;;;4.87;;
18853;SDS011;9556;49.374;19.446;2023-04-06T07:27:30;13.03;;;5.47;;
18853;SDS011;9556;49.374;19.446;2023-04-06T07:29:57;9.57;;;4.83;;
18853;SDS011;9556;49.374;19.446;2023-04-06T07:32:24;9.47;;;4.73;;
18853;SDS011;9556;49.374;19.446;2023-04-06T07:34:51;10.17;;;5.37;;
18853;SDS011;9556;49.374;19.446;2023-04-06T07:37:19;13.53;;;5.00;;
18853;SDS011;9556;49.374;19.446;2023-04-06T07:39:46;9.23;;;4.90;;
18853;SDS011;9556;49.374;19.446;2023-04-06T07:42:15;9.43;;;5.00;;
18853;SDS011;9556;49.374;19.446;2023-04-06T07:44:42;13.40;;;5.27;;
18853;SDS011;9556;49.374;19.446;2023-04-06T07:47:10;10.27;;;4.87;;
18853;SDS011;9556;49.374;19.446;2023-04-06T07:49:37;8.97;;;4.50;;
18853;SDS011;9556;49.374;19.446;2023-04-06T07:52:04;9.13;;;4.87;;
18853;SDS011;9556;49.374;19.446;2023-04-06T07:54:31;14.30;;;4.77;;
18853;SDS011;9556;49.374;19.446;2023-04-06T07:56:58;18.50;;;4.93;;
18853;SDS011;9556;49.374;19.446;2023-04-06T07:59:27;9.20;;;4.90;;
18853;SDS011;9556;49.374;19.446;2023-04-06T08:01:54;17.13;;;5.10;;
18853;SDS011;9556;49.374;19.446;2023-04-06T08:04:21;16.77;;;4.90;;
18853;SDS011;9556;49.374;19.446;2023-04-06T08:06:49;18.50;;;5.40;;
18853;SDS011;9556;49.374;19.446;2023-04-06T08:09:16;15.77;;;4.97;;
18853;SDS011;9556;49.374;19.446;2023-04-06T08:11:43;13.90;;;5.15;;
18853;SDS011;9556;49.374;19.446;2023-04-06T08:14:11;13.50;;;4.63;;
18853;SDS011;9556;49.374;19.446;2023-04-06T08:16:39;15.43;;;4.63;;
18853;SDS011;9556;49.374;19.446;2023-04-06T08:19:07;22.80;;;6.10;;
18853;SDS011;9556;49.374;19.446;2023-04-06T08:21:35;25.27;;;6.83;;
18853;SDS011;9556;49.374;19.446;2023-04-06T08:24:02;18.73;;;6.40;;
18853;SDS011;9556;49.374;19.446;2023-04-06T08:26:30;20.23;;;6.43;;
18853;SDS011;9556;49.374;19.446;2023-04-06T08:28:57;21.05;;;6.03;;
18853;SDS011;9556;49.374;19.446;2023-04-06T08:31:25;23.20;;;6.73;;
18853;SDS011;9556;49.374;19.446;2023-04-06T08:33:54;21.13;;;5.63;;
18853;SDS011;9556;49.374;19.446;2023-04-06T08:36:21;21.57;;;6.10;;
18853;SDS011;9556;49.374;19.446;2023-04-06T08:38:49;22.40;;;5.73;;
18853;SDS011;9556;49.374;19.446;2023-04-06T08:41:17;18.73;;;5.83;;
18853;SDS011;9556;49.374;19.446;2023-04-06T08:43:46;36.43;;;6.70;;
18853;SDS011;9556;49.374;19.446;2023-04-06T08:46:13;17.73;;;5.93;;
18853;SDS011;9556;49.374;19.446;2023-04-06T08:48:41;13.48;;;5.72;;
18853;SDS011;9556;49.374;19.446;2023-04-06T08:51:10;17.33;;;6.05;;
18853;SDS011;9556;49.374;19.446;2023-04-06T08:53:38;17.75;;;6.03;;
18853;SDS011;9556;49.374;19.446;2023-04-06T08:56:05;10.18;;;5.47;;
18853;SDS011;9556;49.374;19.446;2023-04-06T08:58:34;16.40;;;5.30;;
18853;SDS011;9556;49.374;19.446;2023-04-06T09:01:02;10.30;;;5.70;;
18853;SDS011;9556;49.374;19.446;2023-04-06T09:03:33;12.40;;;5.88;;
18853;SDS011;9556;49.374;19.446;2023-04-06T09:06:01;14.35;;;6.25;;
18853;SDS011;9556;49.374;19.446;2023-04-06T09:08:30;13.40;;;6.00;;
18853;SDS011;9556;49.374;19.446;2023-04-06T09:10:58;9.85;;;5.38;;
18853;SDS011;9556;49.374;19.446;2023-04-06T09:13:25;13.30;;;5.83;;
18853;SDS011;9556;49.374;19.446;2023-04-06T09:15:59;16.77;;;5.05;;
18853;SDS011;9556;49.374;19.446;2023-04-06T09:18:30;11.40;;;5.30;;
18853;SDS011;9556;49.374;19.446;2023-04-06T09:20:58;11.02;;;5.35;;
18853;SDS011;9556;49.374;19.446;2023-04-06T09:23:25;11.07;;;5.07;;
18853;SDS011;9556;49.374;19.446;2023-04-06T09:26:04;10.17;;;5.83;;
18853;SDS011;9556;49.374;19.446;2023-04-06T09:28:40;9.90;;;5.77;;
18853;SDS011;9556;49.374;19.446;2023-04-06T09:31:07;12.03;;;5.80;;
18853;SDS011;9556;49.374;19.446;2023-04-06T09:33:36;20.60;;;10.23;;
18853;SDS011;9556;49.374;19.446;2023-04-06T09:36:04;21.70;;;9.83;;
18853;SDS011;9556;49.374;19.446;2023-04-06T09:38:32;41.27;;;25.03;;
18853;SDS011;9556;49.374;19.446;2023-04-06T09:40:59;32.00;;;18.67;;
18853;SDS011;9556;49.374;19.446;2023-04-06T09:43:28;17.23;;;10.10;;
18853;SDS011;9556;49.374;19.446;2023-04-06T09:45:55;17.37;;;11.13;;
18853;SDS011;9556;49.374;19.446;2023-04-06T09:48:24;17.63;;;10.30;;
18853;SDS011;9556;49.374;19.446;2023-04-06T09:50:52;18.13;;;9.33;;
18853;SDS011;9556;49.374;19.446;2023-04-06T09:53:23;13.67;;;8.37;;
18853;SDS011;9556;49.374;19.446;2023-04-06T09:55:52;14.53;;;8.27;;
18853;SDS011;9556;49.374;19.446;2023-04-06T09:58:22;12.87;;;7.87;;
18853;SDS011;9556;49.374;19.446;2023-04-06T10:00:54;15.03;;;7.13;;
18853;SDS011;9556;49.374;19.446;2023-04-06T10:03:26;13.93;;;7.07;;
18853;SDS011;9556;49.374;19.446;2023-04-06T10:05:57;12.77;;;7.30;;
18853;SDS011;9556;49.374;19.446;2023-04-06T10:08:24;13.67;;;6.87;;
18853;SDS011;9556;49.374;19.446;2023-04-06T10:10:53;11.97;;;6.73;;
18853;SDS011;9556;49.374;19.446;2023-04-06T10:13:21;10.80;;;6.30;;
18853;SDS011;9556;49.374;19.446;2023-04-06T10:15:50;10.93;;;6.33;;
18853;SDS011;9556;49.374;19.446;2023-04-06T10:18:20;9.87;;;5.80;;
18853;SDS011;9556;49.374;19.446;2023-04-06T10:20:48;9.80;;;5.87;;
18853;SDS011;9556;49.374;19.446;2023-04-06T10:23:19;9.40;;;5.57;;
18853;SDS011;9556;49.374;19.446;2023-04-06T10:25:52;12.33;;;5.87;;
18853;SDS011;9556;49.374;19.446;2023-04-06T10:28:20;8.80;;;5.73;;
18853;SDS011;9556;49.374;19.446;2023-04-06T10:30:48;9.70;;;5.90;;
18853;SDS011;9556;49.374;19.446;2023-04-06T10:33:15;8.63;;;5.47;;
18853;SDS011;9556;49.374;19.446;2023-04-06T10:35:44;10.10;;;5.20;;
18853;SDS011;9556;49.374;19.446;2023-04-06T10:38:11;9.67;;;5.37;;
18853;SDS011;9556;49.374;19.446;2023-04-06T10:40:40;7.47;;;4.70;;
18853;SDS011;9556;49.374;19.446;2023-04-06T10:43:08;12.53;;;5.57;;
18853;SDS011;9556;49.374;19.446;2023-04-06T10:45:36;9.20;;;4.83;;
18853;SDS011;9556;49.374;19.446;2023-04-06T10:48:12;7.73;;;4.60;;
18853;SDS011;9556;49.374;19.446;2023-04-06T10:50:40;9.20;;;5.30;;
18853;SDS011;9556;49.374;19.446;2023-04-06T10:53:09;8.37;;;5.27;;
18853;SDS011;9556;49.374;19.446;2023-04-06T10:55:38;8.13;;;5.13;;
18853;SDS011;9556;49.374;19.446;2023-04-06T10:58:06;6.97;;;4.70;;
18853;SDS011;9556;49.374;19.446;2023-04-06T11:00:33;9.43;;;5.07;;
18853;SDS011;9556;49.374;19.446;2023-04-06T11:03:00;7.23;;;4.80;;
18853;SDS011;9556;49.374;19.446;2023-04-06T11:05:28;9.03;;;5.90;;
18853;SDS011;9556;49.374;19.446;2023-04-06T11:07:56;9.20;;;5.77;;
18853;SDS011;9556;49.374;19.446;2023-04-06T11:10:25;9.40;;;5.13;;
18853;SDS011;9556;49.374;19.446;2023-04-06T11:12:53;18.10;;;9.53;;
18853;SDS011;9556;49.374;19.446;2023-04-06T11:15:20;19.07;;;10.23;;
18853;SDS011;9556;49.374;19.446;2023-04-06T11:17:47;25.70;;;14.43;;
18853;SDS011;9556;49.374;19.446;2023-04-06T11:20:15;13.37;;;7.97;;
18853;SDS011;9556;49.374;19.446;2023-04-06T11:22:51;11.30;;;6.57;;
18853;SDS011;9556;49.374;19.446;2023-04-06T11:25:20;12.00;;;6.47;;
18853;SDS011;9556;49.374;19.446;2023-04-06T11:27:49;10.17;;;5.70;;
18853;SDS011;9556;49.374;19.446;2023-04-06T11:30:16;9.13;;;5.33;;
18853;SDS011;9556;49.374;19.446;2023-04-06T11:32:50;9.77;;;5.17;;
18853;SDS011;9556;49.374;19.446;2023-04-06T11:35:25;7.13;;;4.97;;
18853;SDS011;9556;49.374;19.446;2023-04-06T11:37:53;7.80;;;4.73;;
18853;SDS011;9556;49.374;19.446;2023-04-06T11:40:25;9.50;;;4.70;;
18853;SDS011;9556;49.374;19.446;2023-04-06T11:42:56;8.80;;;5.13;;
18853;SDS011;9556;49.374;19.446;2023-04-06T11:45:23;9.77;;;5.07;;
18853;SDS011;9556;49.374;19.446;2023-04-06T11:47:57;9.73;;;5.87;;
18853;SDS011;9556;49.374;19.446;2023-04-06T11:50:25;8.03;;;5.10;;
18853;SDS011;9556;49.374;19.446;2023-04-06T11:52:59;10.67;;;5.47;;
18853;SDS011;9556;49.374;19.446;2023-04-06T11:55:26;8.57;;;5.53;;
18853;SDS011;9556;49.374;19.446;2023-04-06T11:57:55;8.40;;;5.53;;
18853;SDS011;9556;49.374;19.446;2023-04-06T12:00:23;7.00;;;5.20;;
18853;SDS011;9556;49.374;19.446;2023-04-06T12:02:50;10.03;;;5.30;;
18853;SDS011;9556;49.374;19.446;2023-04-06T12:05:17;7.67;;;4.60;;
18853;SDS011;9556;49.374;19.446;2023-04-06T12:07:46;9.43;;;4.93;;
18853;SDS011;9556;49.374;19.446;2023-04-06T12:10:14;8.77;;;4.50;;
18853;SDS011;9556;49.374;19.446;2023-04-06T12:12:41;7.70;;;5.30;;
18853;SDS011;9556;49.374;19.446;2023-04-06T12:15:10;9.40;;;5.20;;
18853;SDS011;9556;49.374;19.446;2023-04-06T12:17:37;11.03;;;4.80;;
18853;SDS011;9556;49.374;19.446;2023-04-06T12:20:05;10.30;;;4.87;;
18853;SDS011;9556;49.374;19.446;2023-04-06T12:22:32;11.02;;;5.10;;
18853;SDS011;9556;49.374;19.446;2023-04-06T12:24:59;6.80;;;4.50;;
18853;SDS011;9556;49.374;19.446;2023-04-06T12:27:27;7.83;;;4.60;;
18853;SDS011;9556;49.374;19.446;2023-04-06T12:29:54;9.13;;;5.20;;
18853;SDS011;9556;49.374;19.446;2023-04-06T12:32:23;10.13;;;5.10;;
18853;SDS011;9556;49.374;19.446;2023-04-06T12:34:50;8.90;;;5.10;;
18853;SDS011;9556;49.374;19.446;2023-04-06T12:37:18;8.27;;;5.07;;
18853;SDS011;9556;49.374;19.446;2023-04-06T12:39:45;8.65;;;5.10;;
18853;SDS011;9556;49.374;19.446;2023-04-06T12:42:13;9.10;;;5.17;;
18853;SDS011;9556;49.374;19.446;2023-04-06T12:44:40;7.87;;;5.10;;
18853;SDS011;9556;49.374;19.446;2023-04-06T12:47:08;10.17;;;5.50;;
18853;SDS011;9556;49.374;19.446;2023-04-06T12:49:37;12.20;;;6.83;;
18853;SDS011;9556;49.374;19.446;2023-04-06T12:52:04;12.83;;;7.17;;
18853;SDS011;9556;49.374;19.446;2023-04-06T12:54:32;13.77;;;7.03;;
18853;SDS011;9556;49.374;19.446;2023-04-06T12:56:59;12.10;;;6.73;;
18853;SDS011;9556;49.374;19.446;2023-04-06T12:59:27;14.33;;;7.40;;
18853;SDS011;9556;49.374;19.446;2023-04-06T13:01:59;9.63;;;6.07;;
18853;SDS011;9556;49.374;19.446;2023-04-06T13:04:26;9.40;;;5.07;;
18853;SDS011;9556;49.374;19.446;2023-04-06T13:06:55;10.97;;;5.83;;
18853;SDS011;9556;49.374;19.446;2023-04-06T13:09:22;8.67;;;4.90;;
18853;SDS011;9556;49.374;19.446;2023-04-06T13:11:49;9.87;;;5.20;;
18853;SDS011;9556;49.374;19.446;2023-04-06T13:14:17;8.60;;;4.93;;
18853;SDS011;9556;49.374;19.446;2023-04-06T13:16:44;7.20;;;4.63;;
18853;SDS011;9556;49.374;19.446;2023-04-06T13:19:11;9.13;;;5.20;;
18853;SDS011;9556;49.374;19.446;2023-04-06T13:21:38;9.57;;;5.30;;
18853;SDS011;9556;49.374;19.446;2023-04-06T13:24:07;10.87;;;5.53;;
18853;SDS011;9556;49.374;19.446;2023-04-06T13:26:35;7.67;;;5.20;;
18853;SDS011;9556;49.374;19.446;2023-04-06T13:29:02;8.83;;;5.47;;
18853;SDS011;9556;49.374;19.446;2023-04-06T13:31:29;8.30;;;5.10;;
18853;SDS011;9556;49.374;19.446;2023-04-06T13:33:56;7.73;;;5.07;;
18853;SDS011;9556;49.374;19.446;2023-04-06T13:36:24;11.97;;;8.40;;
18853;SDS011;9556;49.374;19.446;2023-04-06T13:38:52;9.20;;;6.17;;
18853;SDS011;9556;49.374;19.446;2023-04-06T13:41:22;9.27;;;5.50;;
18853;SDS011;9556;49.374;19.446;2023-04-06T13:43:50;12.40;;;5.57;;
18853;SDS011;9556;49.374;19.446;2023-04-06T13:46:17;11.70;;;5.53;;
18853;SDS011;9556;49.374;19.446;2023-04-06T13:48:44;10.53;;;6.27;;
18853;SDS011;9556;49.374;19.446;2023-04-06T13:51:13;10.80;;;7.07;;
18853;SDS011;9556;49.374;19.446;2023-04-06T13:53:41;10.63;;;6.80;;
18853;SDS011;9556;49.374;19.446;2023-04-06T13:56:08;12.57;;;6.27;;
18853;SDS011;9556;49.374;19.446;2023-04-06T13:58:36;10.63;;;6.77;;
18853;SDS011;9556;49.374;19.446;2023-04-06T14:01:04;11.20;;;6.47;;
18853;SDS011;9556;49.374;19.446;2023-04-06T14:03:32;14.87;;;7.63;;
18853;SDS011;9556;49.374;19.446;2023-04-06T14:05:59;15.27;;;10.30;;
18853;SDS011;9556;49.374;19.446;2023-04-06T14:08:26;19.63;;;9.47;;
18853;SDS011;9556;49.374;19.446;2023-04-06T14:10:54;16.93;;;7.40;;
18853;SDS011;9556;49.374;19.446;2023-04-06T14:13:21;11.00;;;7.37;;
18853;SDS011;9556;49.374;19.446;2023-04-06T14:15:53;13.00;;;7.50;;
18853;SDS011;9556;49.374;19.446;2023-04-06T14:18:22;13.93;;;6.63;;
18853;SDS011;9556;49.374;19.446;2023-04-06T14:20:55;10.23;;;6.60;;
18853;SDS011;9556;49.374;19.446;2023-04-06T14:23:23;11.50;;;6.63;;
18853;SDS011;9556;49.374;19.446;2023-04-06T14:25:51;10.17;;;7.07;;
18853;SDS011;9556;49.374;19.446;2023-04-06T14:28:20;12.90;;;7.73;;
18853;SDS011;9556;49.374;19.446;2023-04-06T14:30:47;12.17;;;7.60;;
18853;SDS011;9556;49.374;19.446;2023-04-06T14:33:16;12.57;;;7.53;;
18853;SDS011;9556;49.374;19.446;2023-04-06T14:35:43;13.33;;;7.47;;
18853;SDS011;9556;49.374;19.446;2023-04-06T14:38:10;15.30;;;8.07;;
18853;SDS011;9556;49.374;19.446;2023-04-06T14:40:37;15.47;;;7.87;;